createdAt,value
2019-02-09T00:01:25.712Z,12.87
2019-02-09T00:03:54.840Z,12.40
2019-02-09T00:06:25.590Z,13.27
2019-02-09T00:08:54.980Z,12.40
2019-02-09T00:11:24.126Z,12.83
2019-02-09T00:13:53.569Z,11.77
2019-02-09T00:16:22.650Z,12.00
2019-02-09T00:18:51.948Z,11.90
2019-02-09T00:21:21.093Z,11.80
2019-02-09T00:23:50.334Z,11.67
2019-02-09T00:26:19.570Z,11.83
2019-02-09T00:28:48.672Z,10.53
2019-02-09T00:31:18.020Z,10.67
2019-02-09T00:33:47.270Z,12.93
2019-02-09T00:36:16.408Z,11.73
2019-02-09T00:38:45.858Z,10.60
2019-02-09T00:41:15.136Z,10.40
2019-02-09T00:43:44.321Z,9.87
2019-02-09T00:46:13.463Z,10.67
2019-02-09T00:48:42.526Z,11.40
2019-02-09T00:51:11.699Z,11.17
2019-02-09T00:53:41.022Z,10.50
2019-02-09T00:56:10.117Z,10.63
2019-02-09T00:58:40.692Z,11.60
2019-02-09T01:01:09.829Z,11.13
2019-02-09T01:03:38.934Z,9.47
2019-02-09T01:06:08.070Z,7.50
2019-02-09T01:08:37.355Z,3.97
2019-02-09T01:11:06.950Z,2.63
2019-02-09T01:13:35.987Z,3.43
2019-02-09T01:16:05.895Z,2.30
2019-02-09T01:18:35.088Z,3.00
2019-02-09T01:21:04.378Z,2.63
2019-02-09T01:23:33.643Z,2.40
2019-02-09T01:26:02.854Z,2.63
2019-02-09T01:28:32.308Z,2.43
2019-02-09T01:31:01.391Z,2.43
2019-02-09T01:33:30.487Z,2.30
2019-02-09T01:35:59.627Z,2.07
2019-02-09T01:38:28.833Z,2.00
2019-02-09T01:41:02.066Z,2.43
2019-02-09T01:43:31.120Z,2.13
2019-02-09T01:46:00.349Z,2.30
2019-02-09T01:48:29.695Z,2.30
2019-02-09T01:50:59.124Z,2.53
2019-02-09T01:53:28.208Z,1.93
2019-02-09T01:55:57.303Z,1.97
2019-02-09T01:58:26.550Z,2.03
2019-02-09T02:00:55.910Z,2.10
2019-02-09T02:03:25.025Z,2.00
2019-02-09T02:05:54.266Z,1.97
2019-02-09T02:08:23.853Z,2.47
2019-02-09T02:10:52.945Z,1.93
2019-02-09T02:13:22.050Z,2.27
2019-02-09T02:15:51.210Z,2.30
2019-02-09T02:18:20.306Z,2.10
2019-02-09T02:20:49.489Z,2.30
2019-02-09T02:23:18.860Z,2.17
2019-02-09T02:25:47.984Z,2.30
2019-02-09T02:28:17.141Z,2.30
2019-02-09T02:30:46.452Z,2.30
2019-02-09T02:33:15.679Z,2.30
2019-02-09T02:35:44.969Z,2.37
2019-02-09T02:38:14.106Z,2.43
2019-02-09T02:40:43.424Z,2.30
2019-02-09T02:43:12.553Z,2.53
2019-02-09T02:45:41.764Z,2.50
2019-02-09T02:48:11.328Z,2.77
2019-02-09T02:50:40.415Z,2.63
2019-02-09T02:53:09.651Z,2.60
2019-02-09T02:55:38.819Z,2.00
2019-02-09T02:58:08.096Z,2.57
2019-02-09T03:00:37.286Z,2.60
2019-02-09T03:03:06.572Z,2.30
2019-02-09T03:05:35.841Z,2.70
2019-02-09T03:08:05.872Z,2.13
2019-02-09T03:10:35.215Z,2.30
2019-02-09T03:13:04.289Z,2.57
2019-02-09T03:15:33.894Z,2.53
2019-02-09T03:18:02.956Z,2.47
2019-02-09T03:20:32.080Z,2.60
2019-02-09T03:23:01.132Z,2.60
2019-02-09T03:25:32.293Z,2.40
2019-02-09T03:28:01.403Z,2.30
2019-02-09T03:30:30.594Z,2.30
2019-02-09T03:32:59.925Z,2.23
2019-02-09T03:35:29.264Z,2.00
2019-02-09T03:37:58.404Z,2.90
2019-02-09T03:40:27.697Z,2.40
2019-02-09T03:42:56.802Z,2.40
2019-02-09T03:45:28.030Z,2.10
2019-02-09T03:47:57.356Z,2.67
2019-02-09T03:50:28.079Z,2.20
2019-02-09T03:52:57.590Z,2.20
2019-02-09T03:55:26.900Z,2.07
2019-02-09T03:57:56.195Z,1.90
2019-02-09T04:00:27.108Z,2.30
2019-02-09T04:02:56.533Z,2.40
2019-02-09T04:05:25.777Z,2.40
2019-02-09T04:07:55.040Z,2.20
2019-02-09T04:10:25.141Z,2.13
2019-02-09T04:12:54.449Z,2.10
2019-02-09T04:15:24.828Z,2.07
2019-02-09T04:17:54.185Z,1.80
2019-02-09T04:20:23.528Z,2.07
2019-02-09T04:22:53.113Z,2.13
2019-02-09T04:25:22.773Z,1.67
2019-02-09T04:27:51.863Z,1.90
2019-02-09T04:30:25.982Z,1.73
2019-02-09T04:32:55.331Z,1.80
2019-02-09T04:35:24.443Z,2.00
2019-02-09T04:37:53.905Z,1.60
2019-02-09T04:40:27.593Z,2.10
2019-02-09T04:42:56.871Z,1.80
2019-02-09T04:45:26.051Z,2.20
2019-02-09T04:47:55.134Z,1.73
2019-02-09T04:50:24.417Z,1.70
2019-02-09T04:52:53.893Z,1.90
2019-02-09T04:55:24.779Z,1.80
2019-02-09T04:57:53.850Z,1.90
2019-02-09T05:00:25.971Z,2.00
2019-02-09T05:02:55.268Z,1.77
2019-02-09T05:05:24.638Z,1.57
2019-02-09T05:07:54.081Z,1.63
2019-02-09T05:10:23.335Z,1.67
2019-02-09T05:12:52.382Z,2.00
2019-02-09T05:15:22.061Z,1.60
2019-02-09T05:17:51.485Z,1.60
2019-02-09T05:20:22.025Z,1.83
2019-02-09T05:22:51.491Z,1.90
2019-02-09T05:25:20.603Z,1.70
2019-02-09T05:27:49.861Z,1.73
2019-02-09T05:30:21.560Z,2.00
2019-02-09T05:32:53.017Z,1.93
2019-02-09T05:35:22.147Z,1.60
2019-02-09T05:37:51.211Z,1.90
2019-02-09T05:40:21.322Z,2.00
2019-02-09T05:42:50.821Z,2.00
2019-02-09T05:45:23.354Z,1.50
2019-02-09T05:47:52.430Z,1.80
2019-02-09T05:50:21.752Z,1.67
2019-02-09T05:52:50.985Z,1.50
2019-02-09T05:55:20.083Z,2.10
2019-02-09T05:57:49.154Z,2.00
2019-02-09T06:00:38.971Z,2.00
2019-02-09T06:03:08.011Z,2.00
2019-02-09T06:05:37.242Z,1.60
2019-02-09T06:08:06.775Z,1.80
2019-02-09T06:10:35.866Z,1.93
2019-02-09T06:13:05.237Z,1.70
2019-02-09T06:15:34.358Z,2.10
2019-02-09T06:18:03.443Z,2.00
2019-02-09T06:20:32.669Z,2.60
2019-02-09T06:23:01.777Z,1.87
2019-02-09T06:25:30.828Z,2.07
2019-02-09T06:28:00.032Z,2.23
2019-02-09T06:30:31.052Z,2.63
2019-02-09T06:33:00.341Z,2.03
2019-02-09T06:35:29.671Z,2.80
2019-02-09T06:37:59.096Z,2.30
2019-02-09T06:40:28.286Z,2.43
2019-02-09T06:42:57.491Z,2.80
2019-02-09T06:45:26.784Z,2.20
2019-02-09T06:48:18.084Z,2.80
2019-02-09T06:50:47.362Z,2.47
2019-02-09T06:53:16.723Z,2.60
2019-02-09T06:55:45.886Z,2.83
2019-02-09T06:58:15.265Z,2.73
2019-02-09T07:00:44.314Z,2.70
2019-02-09T07:03:13.443Z,2.70
2019-02-09T07:05:42.978Z,3.17
2019-02-09T07:08:12.195Z,2.80
2019-02-09T07:10:41.289Z,2.47
2019-02-09T07:13:10.344Z,2.60
2019-02-09T07:15:40.074Z,3.00
2019-02-09T07:18:09.428Z,2.47
2019-02-09T07:20:38.538Z,2.87
2019-02-09T07:23:08.160Z,2.87
2019-02-09T07:25:37.437Z,2.23
2019-02-09T07:28:06.974Z,2.20
2019-02-09T07:30:36.922Z,3.13
2019-02-09T07:33:07.138Z,2.97
2019-02-09T07:35:36.515Z,2.57
2019-02-09T07:38:05.931Z,2.20
2019-02-09T07:40:36.007Z,2.30
2019-02-09T07:43:05.263Z,2.47
2019-02-09T07:45:34.491Z,2.20
2019-02-09T07:48:03.564Z,2.17
2019-02-09T07:50:32.984Z,2.40
2019-02-09T07:53:02.147Z,2.00
2019-02-09T07:55:31.239Z,2.33
2019-02-09T07:58:00.332Z,1.60
2019-02-09T08:00:30.407Z,2.20
2019-02-09T08:03:00.150Z,2.43
2019-02-09T08:05:30.190Z,2.43
2019-02-09T08:07:59.284Z,1.93
2019-02-09T08:10:30.462Z,2.10
2019-02-09T08:13:00.359Z,2.30
2019-02-09T08:15:30.730Z,2.10
2019-02-09T08:17:59.915Z,1.90
2019-02-09T08:20:30.139Z,2.17
2019-02-09T08:23:00.896Z,2.03
2019-02-09T08:25:31.896Z,1.80
2019-02-09T08:28:01.300Z,2.13
2019-02-09T08:30:33.065Z,2.23
2019-02-09T08:33:02.192Z,2.43
2019-02-09T08:35:31.307Z,2.10
2019-02-09T08:38:00.630Z,2.47
2019-02-09T08:40:29.964Z,2.53
2019-02-09T08:42:59.086Z,2.10
2019-02-09T08:45:28.167Z,2.10
2019-02-09T08:47:57.548Z,2.40
2019-02-09T08:50:38.343Z,2.00
2019-02-09T08:53:07.609Z,2.07
2019-02-09T08:55:38.927Z,2.10
2019-02-09T08:58:08.242Z,2.30
2019-02-09T09:00:37.579Z,2.40
2019-02-09T09:03:06.688Z,2.57
2019-02-09T09:05:35.893Z,2.07
2019-02-09T09:08:05.422Z,2.70
2019-02-09T09:10:34.491Z,2.87
2019-02-09T09:13:04.834Z,2.83
2019-02-09T09:15:39.847Z,3.47
2019-02-09T09:18:08.968Z,2.20
2019-02-09T09:20:40.101Z,2.57
2019-02-09T09:23:09.184Z,2.60
2019-02-09T09:25:38.395Z,2.60
2019-02-09T09:28:07.505Z,2.27
2019-02-09T09:30:36.693Z,2.53
2019-02-09T09:33:06.153Z,2.83
2019-02-09T09:35:35.245Z,2.83
2019-02-09T09:38:04.474Z,2.57
2019-02-09T09:40:36.033Z,3.07
2019-02-09T09:43:05.703Z,3.10
2019-02-09T09:45:36.037Z,3.13
2019-02-09T09:48:06.297Z,3.27
2019-02-09T09:50:35.423Z,2.33
2019-02-09T09:53:04.537Z,3.00
2019-02-09T09:55:33.788Z,3.40
2019-02-09T09:58:02.921Z,3.40
2019-02-09T10:00:32.286Z,3.00
2019-02-09T10:03:01.394Z,2.87
2019-02-09T10:05:35.802Z,2.60
2019-02-09T10:08:05.824Z,2.13
2019-02-09T10:10:35.151Z,2.77
2019-02-09T10:13:04.523Z,2.30
2019-02-09T10:15:33.697Z,2.90
2019-02-09T10:18:03.014Z,2.30
2019-02-09T10:20:32.592Z,2.53
2019-02-09T10:23:01.991Z,3.00
2019-02-09T10:25:31.989Z,3.10
2019-02-09T10:28:01.463Z,2.60
2019-02-09T10:30:30.785Z,2.80
2019-02-09T10:33:00.005Z,2.63
2019-02-09T10:35:29.165Z,2.87
2019-02-09T10:37:58.603Z,2.83
2019-02-09T10:40:29.511Z,2.63
2019-02-09T10:42:58.990Z,2.73
2019-02-09T10:45:29.316Z,2.70
2019-02-09T10:47:59.441Z,3.20
2019-02-09T10:50:30.641Z,2.70
2019-02-09T10:53:00.015Z,3.03
2019-02-09T10:55:29.700Z,3.00
2019-02-09T10:57:59.187Z,3.57
2019-02-09T11:00:35.031Z,3.40
2019-02-09T11:03:04.246Z,3.43
2019-02-09T11:05:33.465Z,2.93
2019-02-09T11:08:02.653Z,2.90
2019-02-09T11:10:31.896Z,3.40
2019-02-09T11:13:01.019Z,3.50
2019-02-09T11:15:30.249Z,3.70
2019-02-09T11:17:59.504Z,3.23
2019-02-09T11:20:28.729Z,2.90
2019-02-09T11:22:57.951Z,3.17
2019-02-09T11:25:27.086Z,3.10
2019-02-09T11:27:56.542Z,2.90
2019-02-09T11:30:25.703Z,3.33
2019-02-09T11:33:01.652Z,3.40
2019-02-09T11:35:26.055Z,2.87
2019-02-09T11:37:55.179Z,2.83
2019-02-09T11:40:25.094Z,3.13
2019-02-09T11:42:54.625Z,2.77
2019-02-09T11:45:26.139Z,2.67
2019-02-09T11:47:55.209Z,3.23
2019-02-09T11:50:24.374Z,3.20
2019-02-09T11:52:53.855Z,3.40
2019-02-09T11:55:23.209Z,3.63
2019-02-09T11:57:52.852Z,2.40
2019-02-09T12:00:33.126Z,3.60
2019-02-09T12:03:08.509Z,3.83
2019-02-09T12:05:33.255Z,3.30
2019-02-09T12:08:02.546Z,2.80
2019-02-09T12:10:31.961Z,3.00
2019-02-09T12:13:01.059Z,2.57
2019-02-09T12:15:31.976Z,2.93
2019-02-09T12:18:01.511Z,2.60
2019-02-09T12:20:30.667Z,3.00
2019-02-09T12:22:59.844Z,3.27
2019-02-09T12:25:33.700Z,3.00
2019-02-09T12:28:02.891Z,3.23
2019-02-09T12:30:34.186Z,3.30
2019-02-09T12:33:03.400Z,3.40
2019-02-09T12:35:32.681Z,2.50
2019-02-09T12:38:01.895Z,2.97
2019-02-09T12:40:32.853Z,3.07
2019-02-09T12:43:02.298Z,3.73
2019-02-09T12:45:32.529Z,2.30
2019-02-09T12:48:01.746Z,2.67
2019-02-09T12:50:31.190Z,3.07
2019-02-09T12:53:00.261Z,2.90
2019-02-09T12:55:29.352Z,3.00
2019-02-09T12:57:58.819Z,3.23
2019-02-09T13:00:29.871Z,3.10
2019-02-09T13:03:00.880Z,3.00
2019-02-09T13:05:30.684Z,3.33
2019-02-09T13:07:59.736Z,3.37
2019-02-09T13:10:28.821Z,3.00
2019-02-09T13:12:57.901Z,2.83
2019-02-09T13:15:28.481Z,3.60
2019-02-09T13:17:57.611Z,5.37
2019-02-09T13:20:27.795Z,3.00
2019-02-09T13:22:57.856Z,2.90
2019-02-09T13:25:27.122Z,2.70
2019-02-09T13:27:56.531Z,2.80
2019-02-09T13:30:30.787Z,3.13
2019-02-09T13:32:59.919Z,2.70
2019-02-09T13:35:29.571Z,3.10
2019-02-09T13:37:58.905Z,2.80
2019-02-09T13:40:28.088Z,3.27
2019-02-09T13:42:57.255Z,2.80
2019-02-09T13:45:31.658Z,2.80
2019-02-09T13:48:00.870Z,3.47
2019-02-09T13:50:31.318Z,3.40
2019-02-09T13:53:01.371Z,2.30
2019-02-09T13:55:30.580Z,2.70
2019-02-09T13:57:59.716Z,3.67
2019-02-09T14:00:28.823Z,3.00
2019-02-09T14:02:58.207Z,2.50
2019-02-09T14:05:27.286Z,2.33
2019-02-09T14:07:56.432Z,2.47
2019-02-09T14:10:25.913Z,2.30
2019-02-09T14:12:55.274Z,2.70
2019-02-09T14:15:26.527Z,2.43
2019-02-09T14:17:57.157Z,2.30
2019-02-09T14:20:26.563Z,3.00
2019-02-09T14:22:55.699Z,3.10
2019-02-09T14:25:24.847Z,2.10
2019-02-09T14:27:56.913Z,2.80
2019-02-09T14:30:27.112Z,2.60
2019-02-09T14:32:56.353Z,2.50
2019-02-09T14:35:25.545Z,2.33
2019-02-09T14:37:55.006Z,3.33
2019-02-09T14:40:26.521Z,2.20
2019-02-09T14:42:55.991Z,3.07
2019-02-09T14:45:30.770Z,2.57
2019-02-09T14:47:59.981Z,2.17
2019-02-09T14:50:29.703Z,2.20
2019-02-09T14:52:59.002Z,2.63
2019-02-09T14:55:30.187Z,2.53
2019-02-09T14:57:59.573Z,2.00
2019-02-09T15:00:31.395Z,2.20
2019-02-09T15:03:00.694Z,2.10
2019-02-09T15:05:29.955Z,2.53
2019-02-09T15:07:59.087Z,2.20
2019-02-09T15:10:28.217Z,2.33
2019-02-09T15:12:57.747Z,2.50
2019-02-09T15:15:29.597Z,2.30
2019-02-09T15:17:58.939Z,2.63
2019-02-09T15:20:31.059Z,2.40
2019-02-09T15:23:00.223Z,2.20
2019-02-09T15:25:29.558Z,2.77
2019-02-09T15:27:58.715Z,2.17
2019-02-09T15:30:29.762Z,2.33
2019-02-09T15:32:59.219Z,2.13
2019-02-09T15:35:28.445Z,2.83
2019-02-09T15:37:57.715Z,2.00
2019-02-09T15:40:26.791Z,2.43
2019-02-09T15:42:55.978Z,2.50
2019-02-09T15:45:25.686Z,2.77
2019-02-09T15:47:55.027Z,2.83
2019-02-09T15:50:24.098Z,2.67
2019-02-09T15:52:53.286Z,2.97
2019-02-09T15:55:22.582Z,3.00
2019-02-09T15:57:52.264Z,3.07
2019-02-09T16:00:23.652Z,2.20
2019-02-09T16:02:54.579Z,2.87
2019-02-09T16:05:23.778Z,2.77
2019-02-09T16:07:53.201Z,3.37
2019-02-09T16:10:22.509Z,4.00
2019-02-09T16:12:51.754Z,3.10
2019-02-09T16:15:22.965Z,3.13
2019-02-09T16:17:52.210Z,2.67
2019-02-09T16:20:22.601Z,4.00
2019-02-09T16:22:51.831Z,3.63
2019-02-09T16:25:20.975Z,3.27
2019-02-09T16:27:50.248Z,3.10
2019-02-09T16:30:21.368Z,3.90
2019-02-09T16:32:50.453Z,3.53
2019-02-09T16:35:20.888Z,3.10
2019-02-09T16:37:51.517Z,3.50
2019-02-09T16:40:22.700Z,2.37
2019-02-09T16:42:52.190Z,2.80
2019-02-09T16:45:31.903Z,2.60
2019-02-09T16:48:00.981Z,3.40
2019-02-09T16:50:30.363Z,3.20
2019-02-09T16:52:59.533Z,3.00
2019-02-09T16:55:28.743Z,3.63
2019-02-09T16:57:58.903Z,2.83
2019-02-09T17:00:30.856Z,3.10
2019-02-09T17:03:00.507Z,3.00
2019-02-09T17:05:29.613Z,3.40
2019-02-09T17:07:58.839Z,3.67
2019-02-09T17:10:28.210Z,4.50
2019-02-09T17:12:57.361Z,3.03
2019-02-09T17:15:26.617Z,2.73
2019-02-09T17:17:55.796Z,2.80
2019-02-09T17:20:25.253Z,2.93
2019-02-09T17:22:54.349Z,4.10
2019-02-09T17:25:23.549Z,3.97
2019-02-09T17:27:52.672Z,4.13
2019-02-09T17:30:34.825Z,2.90
2019-02-09T17:33:03.914Z,3.80
2019-02-09T17:35:32.978Z,3.80
2019-02-09T17:38:02.086Z,4.53
2019-02-09T17:40:36.628Z,3.90
2019-02-09T17:43:07.141Z,5.40
2019-02-09T17:46:00.087Z,4.37
2019-02-09T17:48:29.297Z,3.40
2019-02-09T17:50:58.558Z,3.50
2019-02-09T17:53:27.735Z,4.53
2019-02-09T17:55:56.891Z,4.60
2019-02-09T17:58:26.267Z,4.70
2019-02-09T18:01:01.856Z,3.80
2019-02-09T18:03:30.985Z,3.90
2019-02-09T18:06:00.202Z,4.03
2019-02-09T18:08:29.262Z,4.30
2019-02-09T18:10:58.455Z,3.80
2019-02-09T18:13:27.655Z,3.57
2019-02-09T18:15:56.831Z,4.77
2019-02-09T18:18:25.941Z,4.10
2019-02-09T18:20:55.038Z,4.60
2019-02-09T18:23:24.310Z,4.13
2019-02-09T18:25:53.407Z,3.80
2019-02-09T18:28:22.609Z,4.23
2019-02-09T18:30:52.049Z,4.20
2019-02-09T18:33:21.450Z,5.13
2019-02-09T18:35:50.623Z,4.83
2019-02-09T18:38:19.705Z,5.37
2019-02-09T18:40:48.769Z,4.30
2019-02-09T18:43:17.937Z,4.20
2019-02-09T18:45:47.192Z,3.97
2019-02-09T18:48:16.502Z,4.90
2019-02-09T18:50:45.605Z,5.23
2019-02-09T18:53:14.862Z,4.50
2019-02-09T18:55:44.219Z,4.80
2019-02-09T18:58:13.399Z,4.43
2019-02-09T19:00:43.326Z,3.87
2019-02-09T19:03:13.048Z,3.90
2019-02-09T19:05:42.196Z,3.70
2019-02-09T19:08:11.494Z,3.60
2019-02-09T19:10:40.777Z,3.30
2019-02-09T19:13:09.827Z,3.33
2019-02-09T19:15:39.002Z,4.23
2019-02-09T19:18:08.483Z,4.43
2019-02-09T19:20:40.665Z,4.23
2019-02-09T19:23:10.381Z,4.47
2019-02-09T19:25:39.544Z,7.10
2019-02-09T19:28:08.785Z,5.03
2019-02-09T19:30:38.312Z,3.77
2019-02-09T19:33:07.615Z,3.80
2019-02-09T19:35:36.746Z,4.80
2019-02-09T19:38:06.130Z,3.23
2019-02-09T19:40:35.431Z,3.43
2019-02-09T19:43:05.119Z,3.90
2019-02-09T19:45:34.646Z,4.50
2019-02-09T19:48:03.870Z,6.10
2019-02-09T19:50:33.037Z,4.03
2019-02-09T19:53:03.070Z,3.70
2019-02-09T19:55:32.657Z,4.50
2019-02-09T19:58:01.922Z,3.93
2019-02-09T20:00:34.232Z,3.63
2019-02-09T20:03:04.365Z,4.03
2019-02-09T20:05:34.019Z,4.10
2019-02-09T20:08:03.253Z,4.90
2019-02-09T20:10:34.431Z,4.60
2019-02-09T20:13:05.567Z,5.80
2019-02-09T20:15:35.052Z,4.20
2019-02-09T20:18:05.125Z,4.43
2019-02-09T20:20:34.274Z,4.83
2019-02-09T20:23:03.692Z,4.50
2019-02-09T20:25:32.803Z,4.40
2019-02-09T20:28:01.963Z,4.63
2019-02-09T20:30:33.042Z,4.73
2019-02-09T20:33:02.305Z,4.47
2019-02-09T20:35:31.551Z,4.77
2019-02-09T20:38:00.706Z,4.80
2019-02-09T20:40:39.692Z,4.40
2019-02-09T20:43:10.827Z,4.80
2019-02-09T20:45:40.076Z,4.17
2019-02-09T20:48:09.243Z,3.60
2019-02-09T20:50:38.544Z,4.50
2019-02-09T20:53:08.078Z,4.50
2019-02-09T20:55:37.194Z,3.27
2019-02-09T20:58:09.045Z,4.77
2019-02-09T21:00:38.179Z,4.00
2019-02-09T21:03:07.590Z,4.57
2019-02-09T21:05:37.084Z,3.43
2019-02-09T21:08:06.632Z,4.10
2019-02-09T21:10:36.385Z,4.20
2019-02-09T21:13:06.370Z,3.90
2019-02-09T21:15:35.611Z,4.50
2019-02-09T21:18:06.097Z,4.17
2019-02-09T21:20:35.149Z,4.50
2019-02-09T21:23:04.318Z,4.13
2019-02-09T21:25:36.242Z,4.03
2019-02-09T21:28:06.233Z,4.67
2019-02-09T21:30:35.745Z,4.40
2019-02-09T21:33:05.572Z,4.50
2019-02-09T21:35:35.226Z,4.10
2019-02-09T21:38:04.621Z,3.80
2019-02-09T21:40:33.741Z,4.30
2019-02-09T21:43:03.057Z,4.40
2019-02-09T21:45:32.151Z,4.30
2019-02-09T21:48:01.337Z,4.87
2019-02-09T21:50:35.388Z,3.97
2019-02-09T21:53:05.037Z,4.17
2019-02-09T21:55:34.143Z,3.93
2019-02-09T21:58:03.211Z,3.60
2019-02-09T22:00:34.334Z,4.40
2019-02-09T22:03:03.845Z,4.63
2019-02-09T22:05:33.002Z,3.73
2019-02-09T22:08:02.089Z,3.23
2019-02-09T22:10:34.072Z,4.20
2019-02-09T22:13:02.273Z,4.13
2019-02-09T22:15:38.326Z,4.10
2019-02-09T22:18:03.173Z,3.90
2019-02-09T22:20:32.254Z,4.03
2019-02-09T22:23:01.400Z,3.60
2019-02-09T22:25:30.847Z,3.67
2019-02-09T22:28:00.011Z,3.53
2019-02-09T22:30:29.726Z,3.57
2019-02-09T22:33:00.358Z,3.60
2019-02-09T22:35:29.567Z,3.73
2019-02-09T22:37:58.867Z,3.63
2019-02-09T22:40:32.126Z,3.90
2019-02-09T22:43:02.854Z,3.40
2019-02-09T22:45:32.070Z,5.17
2019-02-09T22:48:01.173Z,6.30
2019-02-09T22:50:35.890Z,8.47
2019-02-09T22:53:05.515Z,6.60
2019-02-09T22:55:34.586Z,7.13
2019-02-09T22:58:05.013Z,8.13
2019-02-09T23:00:59.894Z,6.93
2019-02-09T23:03:39.517Z,6.00
2019-02-09T23:06:42.002Z,6.50
2019-02-09T23:09:15.139Z,5.93
2019-02-09T23:11:44.203Z,7.63
2019-02-09T23:14:13.470Z,8.10
2019-02-09T23:16:42.502Z,8.10
2019-02-09T23:19:11.738Z,5.50
2019-02-09T23:21:41.117Z,6.57
2019-02-09T23:24:10.175Z,5.13
2019-02-09T23:26:39.679Z,5.47
2019-02-09T23:29:08.793Z,5.33
2019-02-09T23:31:37.838Z,5.40
2019-02-09T23:34:07.180Z,6.23
2019-02-09T23:36:36.353Z,5.90
2019-02-09T23:39:06.741Z,5.50
2019-02-09T23:41:35.910Z,5.47
2019-02-09T23:44:04.967Z,5.13
2019-02-09T23:46:34.247Z,4.33
2019-02-09T23:49:03.575Z,5.70
2019-02-09T23:51:32.661Z,5.20
2019-02-09T23:54:02.156Z,5.10
2019-02-09T23:56:31.315Z,4.87
2019-02-09T23:59:00.368Z,4.63
